createdAt,value
2022-10-10T00:05:17.192Z,17.45
2022-10-10T00:15:19.225Z,17.41
2022-10-10T00:25:24.536Z,17.30
2022-10-10T00:35:32.099Z,17.27
2022-10-10T00:45:45.333Z,17.21
2022-10-10T00:55:47.510Z,17.14
2022-10-10T01:05:51.734Z,17.12
2022-10-10T01:16:05.511Z,17.04
2022-10-10T01:26:33.312Z,16.95
2022-10-10T01:36:52.009Z,16.95
2022-10-10T01:46:56.355Z,16.92
2022-10-10T01:57:54.386Z,16.82
2022-10-10T02:08:03.046Z,16.77
2022-10-10T02:18:05.272Z,16.71
2022-10-10T02:28:09.755Z,16.66
2022-10-10T02:38:12.388Z,16.69
2022-10-10T02:48:13.882Z,16.62
2022-10-10T02:58:15.296Z,16.55
2022-10-10T03:08:17.015Z,16.48
2022-10-10T03:18:18.521Z,16.57
2022-10-10T03:28:19.965Z,16.51
2022-10-10T03:38:21.371Z,16.53
2022-10-10T03:48:22.861Z,16.56
2022-10-10T03:58:24.236Z,16.54
2022-10-10T04:08:25.637Z,16.65
2022-10-10T04:18:27.046Z,16.65
2022-10-10T04:28:28.473Z,16.65
2022-10-10T04:38:29.902Z,16.66
2022-10-10T04:48:31.458Z,16.69
2022-10-10T04:58:32.827Z,16.66
2022-10-10T05:08:34.624Z,16.60
2022-10-10T05:18:38.916Z,16.60
2022-10-10T05:28:40.311Z,16.63
2022-10-10T05:38:41.859Z,16.61
2022-10-10T05:48:43.429Z,16.53
2022-10-10T05:58:44.870Z,16.55
2022-10-10T06:08:46.399Z,16.54
2022-10-10T06:18:47.816Z,16.66
2022-10-10T06:28:50.802Z,16.70
2022-10-10T06:38:52.195Z,16.85
2022-10-10T06:48:53.615Z,17.26
2022-10-10T06:58:55.169Z,17.86
2022-10-10T07:08:58.086Z,18.95
2022-10-10T07:18:59.453Z,19.78
2022-10-10T07:29:00.950Z,20.30
2022-10-10T07:39:02.438Z,20.68
2022-10-10T07:49:04.153Z,21.19
2022-10-10T07:59:05.604Z,21.81
2022-10-10T08:09:07.057Z,22.01
2022-10-10T08:19:08.497Z,22.16
2022-10-10T08:29:09.997Z,22.66
2022-10-10T08:39:11.517Z,22.99
2022-10-10T08:49:27.921Z,22.59
2022-10-10T08:59:36.572Z,22.99
2022-10-10T09:10:09.801Z,23.86
2022-10-10T09:20:35.589Z,25.31
2022-10-10T09:30:37.851Z,27.98
2022-10-10T09:40:50.573Z,29.38
2022-10-10T09:50:51.989Z,24.93
2022-10-10T10:00:56.410Z,23.47
2022-10-10T10:10:58.687Z,22.90
2022-10-10T10:21:13.665Z,22.84
2022-10-10T10:31:24.742Z,22.66
2022-10-10T10:41:41.225Z,22.64
2022-10-10T10:52:10.380Z,22.49
2022-10-10T11:02:54.406Z,22.41
2022-10-10T11:12:59.822Z,22.20
2022-10-10T11:23:10.247Z,22.21
2022-10-10T11:33:15.529Z,22.24
2022-10-10T11:43:22.758Z,22.26
2022-10-10T11:53:39.105Z,22.21
2022-10-10T12:03:40.492Z,22.20
2022-10-10T12:13:44.066Z,22.07
2022-10-10T12:24:10.014Z,22.10
2022-10-10T12:34:16.608Z,22.02
2022-10-10T12:44:21.315Z,21.90
2022-10-10T12:54:24.948Z,21.93
2022-10-10T13:04:28.209Z,21.94
2022-10-10T13:14:44.649Z,21.89
2022-10-10T13:24:46.062Z,21.83
2022-10-10T13:34:52.348Z,21.78
2022-10-10T13:44:53.885Z,21.62
2022-10-10T13:54:55.312Z,21.63
2022-10-10T14:04:56.811Z,21.69
2022-10-10T14:14:58.901Z,21.75
2022-10-10T14:25:00.269Z,21.57
2022-10-10T14:35:01.634Z,21.55
2022-10-10T14:45:03.116Z,21.58
2022-10-10T14:55:04.837Z,21.54
2022-10-10T15:05:06.430Z,21.56
2022-10-10T15:15:08.552Z,21.58
2022-10-10T15:25:09.970Z,21.74
2022-10-10T15:35:13.714Z,21.62
2022-10-10T15:45:26.576Z,21.80
2022-10-10T15:55:49.750Z,21.74
2022-10-10T16:05:51.212Z,21.69
2022-10-10T16:16:03.082Z,21.48
2022-10-10T16:26:06.146Z,21.51
2022-10-10T16:36:11.639Z,21.39
2022-10-10T16:46:15.707Z,21.31
2022-10-10T16:56:18.677Z,21.25
2022-10-10T17:06:21.506Z,21.34
2022-10-10T17:26:45.859Z,21.19
2022-10-10T17:36:47.776Z,21.11
2022-10-10T17:46:50.386Z,21.20
2022-10-10T17:56:51.781Z,21.42
2022-10-10T18:06:53.214Z,21.41
2022-10-10T18:16:54.587Z,21.46
2022-10-10T18:26:56.156Z,21.30
2022-10-10T18:36:57.655Z,21.13
2022-10-10T18:46:59.220Z,21.07
2022-10-10T18:57:00.756Z,21.13
2022-10-10T19:07:02.381Z,21.02
2022-10-10T19:17:03.929Z,21.06
2022-10-10T19:27:05.400Z,20.82
2022-10-10T19:37:06.789Z,20.69
2022-10-10T19:47:08.285Z,20.51
2022-10-10T19:57:12.560Z,20.54
2022-10-10T20:07:14.092Z,20.21
2022-10-10T20:17:15.538Z,20.32
2022-10-10T20:27:17.043Z,20.11
2022-10-10T20:37:18.465Z,19.97
2022-10-10T20:47:19.926Z,19.79
2022-10-10T20:57:23.955Z,19.37
2022-10-10T21:07:25.323Z,19.16
2022-10-10T21:17:26.763Z,18.95
2022-10-10T21:27:28.139Z,18.75
2022-10-10T21:37:30.379Z,18.52
2022-10-10T21:47:31.762Z,18.40
2022-10-10T21:57:33.189Z,18.36
2022-10-10T22:07:34.558Z,18.06
2022-10-10T22:17:36.092Z,17.94
2022-10-10T22:27:37.469Z,17.78
2022-10-10T22:37:41.833Z,17.48
2022-10-10T22:47:47.742Z,17.40
2022-10-10T22:57:49.252Z,17.18
2022-10-10T23:07:50.646Z,17.16
2022-10-10T23:17:52.026Z,17.25
2022-10-10T23:27:53.720Z,17.05
2022-10-10T23:37:56.378Z,16.74
2022-10-10T23:48:03.618Z,16.48
2022-10-10T23:58:05.219Z,16.41
